sensor_id;sensor_type;location;lat;lon;timestamp;pressure;altitude;pressure_sealevel;temperature;humidity
74474;BME280;62922;-6.168;106.796;2022-08-19T00:00:38;100915.84;;;29.92;60.53
74474;BME280;62922;-6.168;106.796;2022-08-19T00:03:05;100867.38;;;29.64;60.16
74474;BME280;62922;-6.168;106.796;2022-08-19T00:05:32;100964.81;;;30.22;60.17
74474;BME280;62922;-6.168;106.796;2022-08-19T00:07:58;100972.78;;;30.20;60.17
74474;BME280;62922;-6.168;106.796;2022-08-19T00:10:25;100967.09;;;30.11;60.44
74474;BME280;62922;-6.168;106.796;2022-08-19T00:12:51;100951.44;;;29.97;60.36
74474;BME280;62922;-6.168;106.796;2022-08-19T00:15:20;100989.66;;;30.20;60.08
74474;BME280;62922;-6.168;106.796;2022-08-19T00:17:47;100976.53;;;30.15;59.64
74474;BME280;62922;-6.168;106.796;2022-08-19T00:20:18;100988.56;;;30.29;60.32
74474;BME280;62922;-6.168;106.796;2022-08-19T00:22:45;100949.56;;;30.14;61.21
74474;BME280;62922;-6.168;106.796;2022-08-19T00:25:13;100965.31;;;30.24;60.47
74474;BME280;62922;-6.168;106.796;2022-08-19T00:27:40;100998.53;;;30.35;60.52
74474;BME280;62922;-6.168;106.796;2022-08-19T00:30:07;100989.72;;;30.28;60.72
74474;BME280;62922;-6.168;106.796;2022-08-19T00:32:35;100994.69;;;30.31;60.61
74474;BME280;62922;-6.168;106.796;2022-08-19T00:35:04;100958.59;;;30.03;60.86
74474;BME280;62922;-6.168;106.796;2022-08-19T00:37:30;100985.69;;;30.21;60.38
74474;BME280;62922;-6.168;106.796;2022-08-19T00:39:57;100978.69;;;30.18;60.38
74474;BME280;62922;-6.168;106.796;2022-08-19T00:42:23;101004.72;;;30.24;60.64
74474;BME280;62922;-6.168;106.796;2022-08-19T00:44:49;100940.00;;;29.93;60.38
74474;BME280;62922;-6.168;106.796;2022-08-19T00:47:16;100948.47;;;29.93;60.38
74474;BME280;62922;-6.168;106.796;2022-08-19T00:49:47;100949.47;;;29.97;60.33
74474;BME280;62922;-6.168;106.796;2022-08-19T00:52:23;101003.28;;;30.26;60.66
74474;BME280;62922;-6.168;106.796;2022-08-19T00:54:51;100971.69;;;30.07;60.38
74474;BME280;62922;-6.168;106.796;2022-08-19T00:57:25;101010.91;;;30.26;59.88
74474;BME280;62922;-6.168;106.796;2022-08-19T00:59:54;101014.34;;;30.23;59.57
74474;BME280;62922;-6.168;106.796;2022-08-19T01:02:21;100987.41;;;30.00;59.26
74474;BME280;62922;-6.168;106.796;2022-08-19T01:04:50;101014.34;;;30.23;59.50
74474;BME280;62922;-6.168;106.796;2022-08-19T01:07:16;100962.66;;;29.88;59.45
74474;BME280;62922;-6.168;106.796;2022-08-19T01:09:43;101006.34;;;30.16;59.38
74474;BME280;62922;-6.168;106.796;2022-08-19T01:12:10;101008.72;;;30.23;59.53
74474;BME280;62922;-6.168;106.796;2022-08-19T01:14:40;100951.94;;;29.90;59.38
74474;BME280;62922;-6.168;106.796;2022-08-19T01:17:10;101009.53;;;30.23;59.31
74474;BME280;62922;-6.168;106.796;2022-08-19T01:19:41;101021.81;;;30.27;59.05
74474;BME280;62922;-6.168;106.796;2022-08-19T01:22:30;101024.84;;;30.31;59.13
74474;BME280;62922;-6.168;106.796;2022-08-19T01:24:59;101021.31;;;30.25;59.51
74474;BME280;62922;-6.168;106.796;2022-08-19T01:27:28;101017.88;;;30.28;58.55
74474;BME280;62922;-6.168;106.796;2022-08-19T01:30:03;101021.38;;;30.34;58.59
74474;BME280;62922;-6.168;106.796;2022-08-19T01:32:29;101001.59;;;30.25;58.49
74474;BME280;62922;-6.168;106.796;2022-08-19T01:34:56;101005.88;;;30.23;58.68
74474;BME280;62922;-6.168;106.796;2022-08-19T01:37:25;100983.34;;;30.14;58.52
74474;BME280;62922;-6.168;106.796;2022-08-19T01:39:51;101016.75;;;30.38;58.41
74474;BME280;62922;-6.168;106.796;2022-08-19T01:42:20;101030.34;;;30.36;58.42
74474;BME280;62922;-6.168;106.796;2022-08-19T01:44:47;101027.84;;;30.34;58.14
74474;BME280;62922;-6.168;106.796;2022-08-19T01:47:14;100983.97;;;30.11;58.01
74474;BME280;62922;-6.168;106.796;2022-08-19T01:49:41;101031.34;;;30.40;57.92
74474;BME280;62922;-6.168;106.796;2022-08-19T01:52:07;101031.84;;;30.42;57.97
74474;BME280;62922;-6.168;106.796;2022-08-19T01:54:33;101023.19;;;30.38;57.89
74474;BME280;62922;-6.168;106.796;2022-08-19T01:57:07;101004.72;;;30.24;57.29
74474;BME280;62922;-6.168;106.796;2022-08-19T01:59:34;101025.91;;;30.43;57.48
74474;BME280;62922;-6.168;106.796;2022-08-19T02:02:03;101029.00;;;30.42;57.37
74474;BME280;62922;-6.168;106.796;2022-08-19T02:04:33;101030.38;;;30.53;55.21
74474;BME280;62922;-6.168;106.796;2022-08-19T02:07:02;101038.22;;;30.56;56.62
74474;BME280;62922;-6.168;106.796;2022-08-19T02:09:31;100963.25;;;30.07;56.72
74474;BME280;62922;-6.168;106.796;2022-08-19T02:11:58;101036.53;;;30.55;56.83
74474;BME280;62922;-6.168;106.796;2022-08-19T02:14:24;100956.19;;;30.18;57.29
74474;BME280;62922;-6.168;106.796;2022-08-19T02:16:50;101016.50;;;30.56;59.30
74474;BME280;62922;-6.168;106.796;2022-08-19T02:19:17;101000.41;;;30.48;58.90
74474;BME280;62922;-6.168;106.796;2022-08-19T02:21:43;100965.06;;;30.34;57.83
74474;BME280;62922;-6.168;106.796;2022-08-19T02:24:10;100971.75;;;30.55;56.17
74474;BME280;62922;-6.168;106.796;2022-08-19T02:26:37;100945.88;;;30.36;56.97
74474;BME280;62922;-6.168;106.796;2022-08-19T02:29:03;100978.91;;;30.61;56.16
74474;BME280;62922;-6.168;106.796;2022-08-19T02:31:29;100987.19;;;30.66;57.67
74474;BME280;62922;-6.168;106.796;2022-08-19T02:33:56;100915.06;;;30.31;55.25
74474;BME280;62922;-6.168;106.796;2022-08-19T02:36:24;100968.81;;;30.60;56.83
74474;BME280;62922;-6.168;106.796;2022-08-19T02:38:51;101001.00;;;30.76;57.00
74474;BME280;62922;-6.168;106.796;2022-08-19T02:41:22;100975.97;;;30.75;57.63
74474;BME280;62922;-6.168;106.796;2022-08-19T02:43:48;100993.50;;;30.72;57.96
74474;BME280;62922;-6.168;106.796;2022-08-19T02:46:20;100914.91;;;30.44;56.09
74474;BME280;62922;-6.168;106.796;2022-08-19T02:48:51;101000.06;;;30.98;55.21
74474;BME280;62922;-6.168;106.796;2022-08-19T02:51:27;100955.25;;;30.79;54.53
74474;BME280;62922;-6.168;106.796;2022-08-19T02:53:54;100970.06;;;31.10;53.60
74474;BME280;62922;-6.168;106.796;2022-08-19T02:56:21;100978.03;;;31.08;53.44
74474;BME280;62922;-6.168;106.796;2022-08-19T02:58:48;100951.50;;;31.01;53.13
74474;BME280;62922;-6.168;106.796;2022-08-19T03:01:30;100985.84;;;31.11;54.17
74474;BME280;62922;-6.168;106.796;2022-08-19T03:04:01;100964.09;;;31.12;53.13
74474;BME280;62922;-6.168;106.796;2022-08-19T03:06:28;100940.56;;;31.08;52.07
74474;BME280;62922;-6.168;106.796;2022-08-19T03:08:55;100976.88;;;31.26;52.82
74474;BME280;62922;-6.168;106.796;2022-08-19T03:13:51;100975.72;;;31.44;50.79
74474;BME280;62922;-6.168;106.796;2022-08-19T03:16:22;100917.84;;;31.13;51.14
74474;BME280;62922;-6.168;106.796;2022-08-19T03:18:50;100975.91;;;31.48;51.30
74474;BME280;62922;-6.168;106.796;2022-08-19T03:21:23;100959.97;;;31.35;51.63
74474;BME280;62922;-6.168;106.796;2022-08-19T03:23:54;100956.81;;;31.45;51.10
74474;BME280;62922;-6.168;106.796;2022-08-19T03:26:20;100969.59;;;31.51;51.72
74474;BME280;62922;-6.168;106.796;2022-08-19T03:28:47;100932.91;;;31.34;50.95
74474;BME280;62922;-6.168;106.796;2022-08-19T03:31:17;100919.66;;;31.26;51.67
74474;BME280;62922;-6.168;106.796;2022-08-19T03:33:45;100961.63;;;31.61;51.83
74474;BME280;62922;-6.168;106.796;2022-08-19T03:36:15;100905.72;;;31.21;52.73
74474;BME280;62922;-6.168;106.796;2022-08-19T03:38:47;100922.13;;;31.44;52.30
74474;BME280;62922;-6.168;106.796;2022-08-19T03:41:19;100883.81;;;31.26;51.74
74474;BME280;62922;-6.168;106.796;2022-08-19T03:43:46;100940.19;;;31.69;51.22
74474;BME280;62922;-6.168;106.796;2022-08-19T03:46:15;100935.06;;;31.54;52.51
74474;BME280;62922;-6.168;106.796;2022-08-19T03:48:43;100943.84;;;31.61;52.45
74474;BME280;62922;-6.168;106.796;2022-08-19T03:51:31;100932.19;;;31.80;51.64
74474;BME280;62922;-6.168;106.796;2022-08-19T03:54:00;100881.84;;;31.44;51.87
74474;BME280;62922;-6.168;106.796;2022-08-19T03:56:27;100881.63;;;31.57;51.18
74474;BME280;62922;-6.168;106.796;2022-08-19T03:58:57;100890.44;;;31.65;51.69
74474;BME280;62922;-6.168;106.796;2022-08-19T04:01:25;100900.25;;;31.41;52.80
74474;BME280;62922;-6.168;106.796;2022-08-19T04:03:53;100927.28;;;31.68;52.69
74474;BME280;62922;-6.168;106.796;2022-08-19T04:06:29;100920.94;;;31.71;52.42
74474;BME280;62922;-6.168;106.796;2022-08-19T04:08:58;100918.47;;;31.61;52.59
74474;BME280;62922;-6.168;106.796;2022-08-19T04:11:48;100913.00;;;31.65;53.34
74474;BME280;62922;-6.168;106.796;2022-08-19T04:14:16;100859.28;;;31.44;52.84
74474;BME280;62922;-6.168;106.796;2022-08-19T04:16:48;100863.75;;;31.45;53.57
74474;BME280;62922;-6.168;106.796;2022-08-19T04:19:16;100851.66;;;31.36;54.21
74474;BME280;62922;-6.168;106.796;2022-08-19T04:21:45;100871.22;;;31.41;54.23
74474;BME280;62922;-6.168;106.796;2022-08-19T04:24:17;100882.28;;;31.63;54.41
74474;BME280;62922;-6.168;106.796;2022-08-19T04:26:45;100878.97;;;31.61;54.70
74474;BME280;62922;-6.168;106.796;2022-08-19T04:29:17;100812.88;;;31.16;54.88
74474;BME280;62922;-6.168;106.796;2022-08-19T04:31:45;100883.47;;;31.62;54.75
74474;BME280;62922;-6.168;106.796;2022-08-19T04:34:16;100855.59;;;31.52;54.51
74474;BME280;62922;-6.168;106.796;2022-08-19T04:36:45;100877.44;;;31.72;54.34
74474;BME280;62922;-6.168;106.796;2022-08-19T04:39:15;100825.59;;;31.47;54.86
74474;BME280;62922;-6.168;106.796;2022-08-19T04:41:42;100859.81;;;31.84;53.75
74474;BME280;62922;-6.168;106.796;2022-08-19T04:44:31;100858.25;;;32.03;52.44
74474;BME280;62922;-6.168;106.796;2022-08-19T04:46:58;100785.72;;;31.57;53.37
74474;BME280;62922;-6.168;106.796;2022-08-19T04:49:24;100843.81;;;32.05;52.56
74474;BME280;62922;-6.168;106.796;2022-08-19T04:51:53;100789.34;;;31.67;52.93
74474;BME280;62922;-6.168;106.796;2022-08-19T04:54:21;100831.19;;;32.02;52.88
74474;BME280;62922;-6.168;106.796;2022-08-19T04:56:49;100785.81;;;31.78;52.63
74474;BME280;62922;-6.168;106.796;2022-08-19T04:59:16;100764.91;;;31.79;50.95
74474;BME280;62922;-6.168;106.796;2022-08-19T05:01:44;100789.00;;;32.06;50.49
74474;BME280;62922;-6.168;106.796;2022-08-19T05:04:17;100759.19;;;32.17;50.02
74474;BME280;62922;-6.168;106.796;2022-08-19T05:06:43;100775.06;;;32.30;50.08
74474;BME280;62922;-6.168;106.796;2022-08-19T05:09:10;100792.09;;;32.42;50.18
74474;BME280;62922;-6.168;106.796;2022-08-19T05:11:37;100705.00;;;32.03;49.02
74474;BME280;62922;-6.168;106.796;2022-08-19T05:14:05;100788.75;;;32.48;49.66
74474;BME280;62922;-6.168;106.796;2022-08-19T05:16:32;100755.03;;;32.43;49.69
74474;BME280;62922;-6.168;106.796;2022-08-19T05:18:58;100758.41;;;32.58;48.79
74474;BME280;62922;-6.168;106.796;2022-08-19T05:21:28;100719.81;;;32.20;50.58
74474;BME280;62922;-6.168;106.796;2022-08-19T05:24:04;100761.78;;;32.51;49.92
74474;BME280;62922;-6.168;106.796;2022-08-19T05:26:36;100756.56;;;32.62;50.99
74474;BME280;62922;-6.168;106.796;2022-08-19T05:29:06;100689.88;;;32.48;52.08
74474;BME280;62922;-6.168;106.796;2022-08-19T05:31:35;100705.25;;;32.72;54.96
74474;BME280;62922;-6.168;106.796;2022-08-19T05:34:05;100751.53;;;33.00;55.77
74474;BME280;62922;-6.168;106.796;2022-08-19T05:36:37;100737.13;;;32.93;56.12
74474;BME280;62922;-6.168;106.796;2022-08-19T05:39:08;100733.88;;;33.03;58.00
74474;BME280;62922;-6.168;106.796;2022-08-19T05:41:34;100731.75;;;33.00;57.25
74474;BME280;62922;-6.168;106.796;2022-08-19T05:44:03;100733.09;;;32.82;56.91
74474;BME280;62922;-6.168;106.796;2022-08-19T05:46:32;100668.28;;;32.44;56.22
74474;BME280;62922;-6.168;106.796;2022-08-19T05:48:59;100701.47;;;32.68;54.51
74474;BME280;62922;-6.168;106.796;2022-08-19T05:51:25;100687.03;;;32.81;52.70
74474;BME280;62922;-6.168;106.796;2022-08-19T05:53:52;100720.47;;;33.12;50.28
74474;BME280;62922;-6.168;106.796;2022-08-19T05:56:19;100660.25;;;32.67;51.42
74474;BME280;62922;-6.168;106.796;2022-08-19T05:58:46;100660.13;;;32.63;51.44
74474;BME280;62922;-6.168;106.796;2022-08-19T06:01:17;100661.22;;;32.71;51.06
74474;BME280;62922;-6.168;106.796;2022-08-19T06:03:44;100659.31;;;32.75;50.33
74474;BME280;62922;-6.168;106.796;2022-08-19T06:06:12;100668.13;;;32.94;50.43
74474;BME280;62922;-6.168;106.796;2022-08-19T06:08:42;100689.72;;;32.78;51.90
74474;BME280;62922;-6.168;106.796;2022-08-19T06:11:16;100682.34;;;32.85;51.38
74474;BME280;62922;-6.168;106.796;2022-08-19T06:13:44;100682.75;;;32.96;50.93
74474;BME280;62922;-6.168;106.796;2022-08-19T06:16:15;100677.50;;;32.86;51.29
74474;BME280;62922;-6.168;106.796;2022-08-19T06:18:52;100688.75;;;32.94;50.54
74474;BME280;62922;-6.168;106.796;2022-08-19T06:21:20;100676.84;;;33.01;50.82
74474;BME280;62922;-6.168;106.796;2022-08-19T06:23:50;100674.19;;;33.16;48.94
74474;BME280;62922;-6.168;106.796;2022-08-19T06:26:18;100669.59;;;33.24;49.11
74474;BME280;62922;-6.168;106.796;2022-08-19T06:28:49;100656.94;;;33.09;50.78
74474;BME280;62922;-6.168;106.796;2022-08-19T06:31:22;100653.19;;;33.05;49.76
74474;BME280;62922;-6.168;106.796;2022-08-19T06:33:49;100615.72;;;32.96;48.55
74474;BME280;62922;-6.168;106.796;2022-08-19T06:38:44;100642.22;;;33.28;48.60
74474;BME280;62922;-6.168;106.796;2022-08-19T06:41:10;100634.59;;;33.16;48.76
74474;BME280;62922;-6.168;106.796;2022-08-19T06:43:37;100605.25;;;33.09;47.51
74474;BME280;62922;-6.168;106.796;2022-08-19T06:46:03;100588.81;;;32.90;49.16
74474;BME280;62922;-6.168;106.796;2022-08-19T06:48:30;100614.78;;;33.04;49.22
74474;BME280;62922;-6.168;106.796;2022-08-19T06:50:57;100641.31;;;33.24;49.55
74474;BME280;62922;-6.168;106.796;2022-08-19T06:53:23;100628.91;;;33.04;50.02
74474;BME280;62922;-6.168;106.796;2022-08-19T06:55:50;100655.91;;;33.02;50.79
74474;BME280;62922;-6.168;106.796;2022-08-19T06:58:26;100588.00;;;32.78;50.23
74474;BME280;62922;-6.168;106.796;2022-08-19T07:00:52;100569.03;;;32.90;48.05
74474;BME280;62922;-6.168;106.796;2022-08-19T07:03:18;100593.69;;;33.26;47.85
74474;BME280;62922;-6.168;106.796;2022-08-19T07:05:45;100554.91;;;32.90;47.66
74474;BME280;62922;-6.168;106.796;2022-08-19T07:08:11;100566.00;;;33.19;47.15
74474;BME280;62922;-6.168;106.796;2022-08-19T07:10:43;100576.94;;;33.21;47.80
74474;BME280;62922;-6.168;106.796;2022-08-19T07:13:10;100617.13;;;33.26;48.57
74474;BME280;62922;-6.168;106.796;2022-08-19T07:15:37;100547.00;;;32.84;48.35
74474;BME280;62922;-6.168;106.796;2022-08-19T07:18:06;100545.13;;;32.76;49.04
74474;BME280;62922;-6.168;106.796;2022-08-19T07:20:32;100596.13;;;32.91;48.47
74474;BME280;62922;-6.168;106.796;2022-08-19T07:22:59;100597.94;;;32.96;49.18
74474;BME280;62922;-6.168;106.796;2022-08-19T07:25:25;100552.06;;;32.78;48.30
74474;BME280;62922;-6.168;106.796;2022-08-19T07:27:51;100581.31;;;32.94;48.38
74474;BME280;62922;-6.168;106.796;2022-08-19T07:30:17;100560.94;;;33.01;48.03
74474;BME280;62922;-6.168;106.796;2022-08-19T07:32:44;100569.19;;;33.06;47.82
74474;BME280;62922;-6.168;106.796;2022-08-19T07:35:10;100578.97;;;32.96;48.86
74474;BME280;62922;-6.168;106.796;2022-08-19T07:37:37;100544.16;;;32.72;48.75
74474;BME280;62922;-6.168;106.796;2022-08-19T07:40:06;100533.34;;;32.74;48.63
74474;BME280;62922;-6.168;106.796;2022-08-19T07:42:32;100601.00;;;33.27;47.76
74474;BME280;62922;-6.168;106.796;2022-08-19T07:44:59;100558.34;;;33.08;47.58
74474;BME280;62922;-6.168;106.796;2022-08-19T07:47:28;100572.59;;;33.23;47.51
74474;BME280;62922;-6.168;106.796;2022-08-19T07:49:56;100560.22;;;33.28;46.84
74474;BME280;62922;-6.168;106.796;2022-08-19T07:52:22;100530.78;;;33.05;47.01
74474;BME280;62922;-6.168;106.796;2022-08-19T07:54:49;100570.72;;;33.15;47.36
74474;BME280;62922;-6.168;106.796;2022-08-19T07:57:16;100604.53;;;33.36;47.69
74474;BME280;62922;-6.168;106.796;2022-08-19T07:59:45;100521.22;;;32.85;47.95
74474;BME280;62922;-6.168;106.796;2022-08-19T08:02:11;100508.97;;;32.69;47.54
74474;BME280;62922;-6.168;106.796;2022-08-19T08:04:37;100553.84;;;32.95;47.46
74474;BME280;62922;-6.168;106.796;2022-08-19T08:07:24;100597.78;;;33.40;46.58
74474;BME280;62922;-6.168;106.796;2022-08-19T08:09:59;100593.00;;;33.29;47.17
74474;BME280;62922;-6.168;106.796;2022-08-19T08:12:31;100592.50;;;33.27;47.07
74474;BME280;62922;-6.168;106.796;2022-08-19T08:15:01;100552.91;;;33.15;47.08
74474;BME280;62922;-6.168;106.796;2022-08-19T08:17:31;100578.13;;;33.32;47.90
74474;BME280;62922;-6.168;106.796;2022-08-19T08:19:59;100536.31;;;33.13;47.49
74474;BME280;62922;-6.168;106.796;2022-08-19T08:22:26;100570.47;;;33.32;46.50
74474;BME280;62922;-6.168;106.796;2022-08-19T08:25:15;100596.88;;;33.48;46.77
74474;BME280;62922;-6.168;106.796;2022-08-19T08:27:45;100591.44;;;33.43;47.08
74474;BME280;62922;-6.168;106.796;2022-08-19T08:30:14;100570.59;;;33.36;47.42
74474;BME280;62922;-6.168;106.796;2022-08-19T08:32:42;100590.63;;;33.55;46.15
74474;BME280;62922;-6.168;106.796;2022-08-19T08:35:15;100562.22;;;33.39;46.45
74474;BME280;62922;-6.168;106.796;2022-08-19T08:37:44;100537.47;;;33.36;46.44
74474;BME280;62922;-6.168;106.796;2022-08-19T08:40:27;100586.41;;;33.49;46.96
74474;BME280;62922;-6.168;106.796;2022-08-19T08:43:00;100542.78;;;33.14;47.33
74474;BME280;62922;-6.168;106.796;2022-08-19T08:45:30;100543.13;;;33.24;45.93
74474;BME280;62922;-6.168;106.796;2022-08-19T08:48:02;100577.66;;;33.42;46.56
74474;BME280;62922;-6.168;106.796;2022-08-19T08:50:35;100548.31;;;33.22;46.81
74474;BME280;62922;-6.168;106.796;2022-08-19T08:53:06;100572.47;;;33.44;46.59
74474;BME280;62922;-6.168;106.796;2022-08-19T08:55:36;100566.94;;;33.11;47.58
74474;BME280;62922;-6.168;106.796;2022-08-19T08:58:09;100564.59;;;33.25;47.22
74474;BME280;62922;-6.168;106.796;2022-08-19T09:00:43;100581.44;;;33.46;46.21
74474;BME280;62922;-6.168;106.796;2022-08-19T09:03:25;100538.78;;;33.27;46.05
74474;BME280;62922;-6.168;106.796;2022-08-19T09:06:04;100510.41;;;32.99;47.21
74474;BME280;62922;-6.168;106.796;2022-08-19T09:11:09;100553.63;;;33.24;47.04
74474;BME280;62922;-6.168;106.796;2022-08-19T09:13:49;100589.78;;;33.30;47.86
74474;BME280;62922;-6.168;106.796;2022-08-19T09:16:19;100584.25;;;33.34;47.31
74474;BME280;62922;-6.168;106.796;2022-08-19T09:18:50;100541.59;;;33.15;47.55
74474;BME280;62922;-6.168;106.796;2022-08-19T09:21:22;100568.22;;;33.38;46.71
74474;BME280;62922;-6.168;106.796;2022-08-19T09:23:49;100539.25;;;33.17;47.86
74474;BME280;62922;-6.168;106.796;2022-08-19T09:26:18;100588.97;;;33.30;48.52
74474;BME280;62922;-6.168;106.796;2022-08-19T09:28:49;100562.94;;;33.24;47.84
74474;BME280;62922;-6.168;106.796;2022-08-19T09:31:18;100568.97;;;33.11;48.15
74474;BME280;62922;-6.168;106.796;2022-08-19T09:33:48;100586.59;;;33.32;47.82
74474;BME280;62922;-6.168;106.796;2022-08-19T09:36:18;100581.53;;;33.37;48.03
74474;BME280;62922;-6.168;106.796;2022-08-19T09:38:45;100548.94;;;33.04;48.76
74474;BME280;62922;-6.168;106.796;2022-08-19T09:41:16;100590.63;;;33.31;48.54
74474;BME280;62922;-6.168;106.796;2022-08-19T09:43:45;100584.13;;;33.30;48.34
74474;BME280;62922;-6.168;106.796;2022-08-19T09:46:15;100560.72;;;32.94;49.49
74474;BME280;62922;-6.168;106.796;2022-08-19T09:48:45;100529.56;;;32.70;49.30
74474;BME280;62922;-6.168;106.796;2022-08-19T09:51:19;100551.63;;;33.00;48.48
74474;BME280;62922;-6.168;106.796;2022-08-19T09:53:46;100597.91;;;33.32;48.10
74474;BME280;62922;-6.168;106.796;2022-08-19T09:56:15;100599.34;;;33.26;48.50
74474;BME280;62922;-6.168;106.796;2022-08-19T09:58:42;100576.72;;;33.14;48.16
74474;BME280;62922;-6.168;106.796;2022-08-19T10:01:09;100606.44;;;33.20;49.04
74474;BME280;62922;-6.168;106.796;2022-08-19T10:03:39;100579.91;;;33.12;48.45
74474;BME280;62922;-6.168;106.796;2022-08-19T10:06:05;100603.81;;;33.15;49.19
74474;BME280;62922;-6.168;106.796;2022-08-19T10:08:35;100607.13;;;33.17;49.33
74474;BME280;62922;-6.168;106.796;2022-08-19T10:11:06;100608.06;;;33.21;48.82
74474;BME280;62922;-6.168;106.796;2022-08-19T10:13:32;100582.72;;;33.00;49.04
74474;BME280;62922;-6.168;106.796;2022-08-19T10:16:08;100596.75;;;33.09;49.38
74474;BME280;62922;-6.168;106.796;2022-08-19T10:18:36;100575.44;;;32.99;49.36
74474;BME280;62922;-6.168;106.796;2022-08-19T10:21:11;100605.00;;;33.14;48.90
74474;BME280;62922;-6.168;106.796;2022-08-19T10:23:42;100612.44;;;33.18;49.30
74474;BME280;62922;-6.168;106.796;2022-08-19T10:26:14;100587.34;;;33.05;48.92
74474;BME280;62922;-6.168;106.796;2022-08-19T10:28:41;100566.56;;;32.89;49.30
74474;BME280;62922;-6.168;106.796;2022-08-19T10:31:11;100537.81;;;32.63;48.61
74474;BME280;62922;-6.168;106.796;2022-08-19T10:33:39;100596.59;;;32.93;48.89
74474;BME280;62922;-6.168;106.796;2022-08-19T10:36:12;100635.50;;;33.08;49.18
74474;BME280;62922;-6.168;106.796;2022-08-19T10:38:41;100565.59;;;32.61;49.46
74474;BME280;62922;-6.168;106.796;2022-08-19T10:41:14;100651.66;;;32.96;50.08
74474;BME280;62922;-6.168;106.796;2022-08-19T10:43:41;100585.84;;;32.75;49.51
74474;BME280;62922;-6.168;106.796;2022-08-19T10:46:10;100628.56;;;32.94;49.13
74474;BME280;62922;-6.168;106.796;2022-08-19T10:48:36;100649.41;;;33.01;49.58
74474;BME280;62922;-6.168;106.796;2022-08-19T10:51:03;100636.13;;;33.02;50.24
74474;BME280;62922;-6.168;106.796;2022-08-19T10:53:50;100595.75;;;32.81;49.94
74474;BME280;62922;-6.168;106.796;2022-08-19T10:56:17;100608.97;;;32.89;50.35
74474;BME280;62922;-6.168;106.796;2022-08-19T10:58:52;100535.91;;;32.42;50.84
74474;BME280;62922;-6.168;106.796;2022-08-19T11:01:19;100606.03;;;32.85;50.94
74474;BME280;62922;-6.168;106.796;2022-08-19T11:03:46;100647.31;;;32.98;51.45
74474;BME280;62922;-6.168;106.796;2022-08-19T11:06:15;100609.03;;;32.68;51.10
74474;BME280;62922;-6.168;106.796;2022-08-19T11:08:41;100660.81;;;32.93;51.01
74474;BME280;62922;-6.168;106.796;2022-08-19T11:11:11;100582.53;;;32.48;51.03
74474;BME280;62922;-6.168;106.796;2022-08-19T11:13:39;100619.88;;;32.66;50.78
74474;BME280;62922;-6.168;106.796;2022-08-19T11:16:13;100673.84;;;32.85;50.86
74474;BME280;62922;-6.168;106.796;2022-08-19T11:18:45;100643.56;;;32.74;50.74
74474;BME280;62922;-6.168;106.796;2022-08-19T11:21:24;100669.94;;;32.78;52.37
74474;BME280;62922;-6.168;106.796;2022-08-19T11:23:54;100642.56;;;32.58;52.30
74474;BME280;62922;-6.168;106.796;2022-08-19T11:26:24;100662.59;;;32.65;52.11
74474;BME280;62922;-6.168;106.796;2022-08-19T11:28:51;100612.72;;;32.36;52.16
74474;BME280;62922;-6.168;106.796;2022-08-19T11:31:24;100693.16;;;32.83;51.48
74474;BME280;62922;-6.168;106.796;2022-08-19T11:33:51;100650.81;;;32.50;52.23
74474;BME280;62922;-6.168;106.796;2022-08-19T11:36:20;100664.09;;;32.50;52.17
74474;BME280;62922;-6.168;106.796;2022-08-19T11:38:50;100689.06;;;32.60;51.17
74474;BME280;62922;-6.168;106.796;2022-08-19T11:41:19;100668.66;;;32.42;51.71
74474;BME280;62922;-6.168;106.796;2022-08-19T11:43:45;100711.59;;;32.69;51.38
74474;BME280;62922;-6.168;106.796;2022-08-19T11:46:14;100576.28;;;31.81;51.48
74474;BME280;62922;-6.168;106.796;2022-08-19T11:48:41;100701.53;;;32.47;51.16
74474;BME280;62922;-6.168;106.796;2022-08-19T11:51:13;100729.19;;;32.53;51.65
74474;BME280;62922;-6.168;106.796;2022-08-19T11:53:40;100694.78;;;32.31;51.41
74474;BME280;62922;-6.168;106.796;2022-08-19T11:56:07;100720.31;;;32.43;51.58
74474;BME280;62922;-6.168;106.796;2022-08-19T11:58:34;100778.47;;;32.65;51.79
74474;BME280;62922;-6.168;106.796;2022-08-19T12:01:04;100775.00;;;32.59;51.82
74474;BME280;62922;-6.168;106.796;2022-08-19T12:03:30;100765.78;;;32.50;51.49
74474;BME280;62922;-6.168;106.796;2022-08-19T12:05:57;100702.03;;;32.20;52.39
74474;BME280;62922;-6.168;106.796;2022-08-19T12:08:23;100789.19;;;32.71;53.15
74474;BME280;62922;-6.168;106.796;2022-08-19T12:10:49;100756.00;;;32.47;52.65
74474;BME280;62922;-6.168;106.796;2022-08-19T12:13:15;100792.81;;;32.60;51.86
74474;BME280;62922;-6.168;106.796;2022-08-19T12:15:46;100766.03;;;32.36;52.31
74474;BME280;62922;-6.168;106.796;2022-08-19T12:18:15;100796.38;;;32.48;52.03
74474;BME280;62922;-6.168;106.796;2022-08-19T12:20:42;100761.00;;;32.21;51.69
74474;BME280;62922;-6.168;106.796;2022-08-19T12:23:10;100777.25;;;32.24;51.95
74474;BME280;62922;-6.168;106.796;2022-08-19T12:25:42;100713.28;;;31.79;52.26
74474;BME280;62922;-6.168;106.796;2022-08-19T12:28:19;100843.44;;;32.44;52.75
74474;BME280;62922;-6.168;106.796;2022-08-19T12:30:46;100840.25;;;32.45;53.16
74474;BME280;62922;-6.168;106.796;2022-08-19T12:33:14;100837.59;;;32.40;52.63
74474;BME280;62922;-6.168;106.796;2022-08-19T12:35:42;100836.63;;;32.36;52.82
74474;BME280;62922;-6.168;106.796;2022-08-19T12:38:10;100852.72;;;32.44;53.08
74474;BME280;62922;-6.168;106.796;2022-08-19T12:40:37;100818.28;;;32.22;53.12
74474;BME280;62922;-6.168;106.796;2022-08-19T12:43:06;100843.31;;;32.32;53.16
74474;BME280;62922;-6.168;106.796;2022-08-19T12:45:33;100810.38;;;32.15;53.56
74474;BME280;62922;-6.168;106.796;2022-08-19T12:48:00;100847.50;;;32.26;53.17